»·PEaware :: N2494V KRDD-KMFR

N2494V :: KRDD-KMFR

FLIGHT INFORMATION

Flight Status: Arrived
Operator: Privately registered:
United States
More flights under this callsign
Pilot: Sally S. (18014)
Aircraft: Unknown
(DA62)
More flights by this aircraft type
Origin: KRDD Redding Mun
United States
Destination: KMFR Rogue Valley Intl-Medford
United States
More flights between these airports :: More routes between these airports
Route: 1O6 24S
File this flight plan on PilotEdge
Remarks:
Altitude:
(Current/Filed)
8,500ft
Speed:
(Current/Filed)
165kts
Departed: 19-Apr-18 09:22 AM
Arrived: 19-Apr-18 10:12 AM
Distance/Time
Traveled:
115nm/0:50
Distance/Time
To Go:
Arrived

Flight Plot

Page will automatically refresh every two minutes.

Flight plan parsing failed; only flown route is shown


Map Options




Map Legend


Flown Route
Filed Route
Departure Airport
Arrival Airport
Navaid (VOR, NDB)
Fix

Horizontal Profiles

Position Reports

Time Latitude Longitude Heading Altitude Ground
Speed
19-Apr-18 09:12 40.509880 -122.297528 180 508ft 0kts
19-Apr-18 09:13 40.509880 -122.297528 180 508ft 0kts
19-Apr-18 09:14 40.509880 -122.297528 180 508ft 0kts
19-Apr-18 09:15 40.509880 -122.297528 180 508ft 0kts
19-Apr-18 09:16 40.509880 -122.297528 180 508ft 0kts
19-Apr-18 09:17 40.509377 -122.298672 177 508ft 8kts
19-Apr-18 09:18 40.505360 -122.298372 175 508ft 18kts
19-Apr-18 09:19 40.501877 -122.295903 132 508ft 0kts
19-Apr-18 09:20 40.501554 -122.294924 28 508ft 8kts
19-Apr-18 09:21 40.522552 -122.294814 357 1245ft 101kts
19-Apr-18 09:22 40.553615 -122.295620 359 2396ft 116kts
19-Apr-18 09:23 40.585174 -122.295125 0 3496ft 116kts
19-Apr-18 09:24 40.617402 -122.294210 0 4394ft 116kts
19-Apr-18 09:25 40.649670 -122.293169 1 5284ft 116kts
19-Apr-18 09:26 40.682040 -122.292093 1 6160ft 117kts
19-Apr-18 09:27 40.714091 -122.291016 1 7012ft 117kts
19-Apr-18 09:28 40.746499 -122.289923 1 7857ft 117kts
19-Apr-18 09:29 40.779150 -122.288796 1 8498ft 130kts
19-Apr-18 09:30 40.818713 -122.287320 1 8500ft 152kts
19-Apr-18 09:31 40.861558 -122.285856 1 8498ft 156kts
19-Apr-18 09:32 40.900855 -122.284518 1 8498ft 156kts
19-Apr-18 09:33 40.944121 -122.283052 1 8497ft 156kts
19-Apr-18 09:34 40.987499 -122.281578 1 8497ft 156kts
19-Apr-18 09:35 41.030787 -122.280103 1 8497ft 157kts
19-Apr-18 09:36 41.073513 -122.278645 1 8497ft 157kts
19-Apr-18 09:37 41.113344 -122.277284 1 8501ft 157kts
19-Apr-18 09:38 41.153912 -122.269985 26 8515ft 158kts
19-Apr-18 09:39 41.193993 -122.246898 17 8536ft 158kts
19-Apr-18 09:40 41.235258 -122.233022 10 8557ft 157kts
19-Apr-18 09:41 41.277988 -122.240551 349 8578ft 157kts
19-Apr-18 09:42 41.320837 -122.252777 349 8583ft 158kts
19-Apr-18 09:43 41.363906 -122.263739 351 8582ft 158kts
19-Apr-18 09:44 41.407059 -122.268046 2 8582ft 157kts
19-Apr-18 09:45 41.450166 -122.263801 4 8582ft 157kts
19-Apr-18 09:46 41.492276 -122.259330 3 8582ft 157kts
19-Apr-18 09:47 41.531351 -122.284204 334 8582ft 159kts
19-Apr-18 09:48 41.570673 -122.311723 335 8581ft 159kts
19-Apr-18 09:49 41.609970 -122.338919 335 8581ft 159kts
19-Apr-18 09:50 41.648923 -122.365851 335 8581ft 159kts
19-Apr-18 09:51 41.686860 -122.392104 335 8581ft 159kts
19-Apr-18 09:52 41.727842 -122.413470 342 8581ft 158kts
19-Apr-18 09:53 41.769442 -122.432939 342 8581ft 158kts
19-Apr-18 09:54 41.811017 -122.452385 342 8580ft 158kts
19-Apr-18 09:55 41.852444 -122.471752 342 8580ft 158kts
19-Apr-18 09:56 41.893919 -122.491133 342 8522ft 162kts
19-Apr-18 09:57 41.935758 -122.510586 342 8442ft 160kts
19-Apr-18 09:58 41.977300 -122.529935 342 8442ft 158kts
19-Apr-18 09:59 42.018491 -122.549127 342 8442ft 158kts
19-Apr-18 10:00 42.057060 -122.567099 342 8442ft 158kts
19-Apr-18 10:01 42.096635 -122.593748 325 8179ft 173kts
19-Apr-18 10:02 42.132459 -122.629763 325 7252ft 166kts
19-Apr-18 10:03 42.166167 -122.663626 323 6279ft 152kts
19-Apr-18 10:04 42.199573 -122.697230 322 5285ft 150kts
19-Apr-18 10:05 42.232058 -122.729963 321 4494ft 141kts
19-Apr-18 10:06 42.262973 -122.761160 321 4474ft 139kts
19-Apr-18 10:07 42.297364 -122.795915 321 3538ft 161kts
19-Apr-18 10:08 42.324621 -122.830748 302 2394ft 125kts
19-Apr-18 10:09 42.344386 -122.856831 330 1886ft 93kts
19-Apr-18 10:10 42.366306 -122.868729 340 1337ft 56kts
19-Apr-18 10:11 42.369781 -122.872154 341 1337ft 14kts
19-Apr-18 10:12 42.371908 -122.875223 231 1337ft 12kts
19-Apr-18 10:13 42.371050 -122.875718 104 1337ft 0kts
19-Apr-18 10:14 42.371050 -122.875718 104 1337ft 0kts

Navigation Log

Ident Type
Flight plan parsing failed, navigation log unavailable